sensor_id;sensor_type;location;lat;lon;timestamp;pressure;altitude;pressure_sealevel;temperature;humidity
23281;BME280;11809;56.390;-3.266;2023-06-22T00:01:46;101267.09;;;20.83;61.80
23281;BME280;11809;56.390;-3.266;2023-06-22T00:04:14;101275.22;;;20.81;61.92
23281;BME280;11809;56.390;-3.266;2023-06-22T00:06:41;101272.66;;;20.80;61.90
23281;BME280;11809;56.390;-3.266;2023-06-22T00:09:08;101276.41;;;20.77;62.06
23281;BME280;11809;56.390;-3.266;2023-06-22T00:11:37;101272.03;;;20.76;61.88
23281;BME280;11809;56.390;-3.266;2023-06-22T00:14:05;101279.31;;;20.74;61.82
23281;BME280;11809;56.390;-3.266;2023-06-22T00:16:32;101274.19;;;20.71;61.98
23281;BME280;11809;56.390;-3.266;2023-06-22T00:19:00;101277.84;;;20.70;62.37
23281;BME280;11809;56.390;-3.266;2023-06-22T00:21:29;101273.44;;;20.69;62.19
23281;BME280;11809;56.390;-3.266;2023-06-22T00:23:56;101277.94;;;20.69;62.03
23281;BME280;11809;56.390;-3.266;2023-06-22T00:26:24;101282.53;;;20.67;62.15
23281;BME280;11809;56.390;-3.266;2023-06-22T00:28:51;101279.13;;;20.65;62.14
23281;BME280;11809;56.390;-3.266;2023-06-22T00:31:18;101270.47;;;20.61;62.12
23281;BME280;11809;56.390;-3.266;2023-06-22T00:33:45;101285.53;;;20.62;62.26
23281;BME280;11809;56.390;-3.266;2023-06-22T00:36:13;101287.44;;;20.60;61.91
23281;BME280;11809;56.390;-3.266;2023-06-22T00:38:43;101292.06;;;20.58;62.01
23281;BME280;11809;56.390;-3.266;2023-06-22T00:41:10;101300.06;;;20.58;61.95
23281;BME280;11809;56.390;-3.266;2023-06-22T00:43:37;101308.06;;;20.58;62.23
23281;BME280;11809;56.390;-3.266;2023-06-22T00:46:04;101309.88;;;20.58;61.87
23281;BME280;11809;56.390;-3.266;2023-06-22T00:48:31;101311.81;;;20.55;62.03
23281;BME280;11809;56.390;-3.266;2023-06-22T00:50:59;101315.44;;;20.54;61.97
23281;BME280;11809;56.390;-3.266;2023-06-22T00:53:26;101324.31;;;20.55;62.01
23281;BME280;11809;56.390;-3.266;2023-06-22T00:55:53;101317.28;;;20.54;62.15
23281;BME280;11809;56.390;-3.266;2023-06-22T00:58:21;101318.22;;;20.53;62.20
23281;BME280;11809;56.390;-3.266;2023-06-22T01:00:48;101323.78;;;20.50;61.76
23281;BME280;11809;56.390;-3.266;2023-06-22T01:03:15;101325.59;;;20.49;61.87
23281;BME280;11809;56.390;-3.266;2023-06-22T01:05:45;101329.34;;;20.47;61.96
23281;BME280;11809;56.390;-3.266;2023-06-22T01:08:46;101326.78;;;20.45;62.23
23281;BME280;11809;56.390;-3.266;2023-06-22T01:11:40;101325.19;;;20.43;62.01
23281;BME280;11809;56.390;-3.266;2023-06-22T01:14:17;101326.34;;;20.39;62.14
23281;BME280;11809;56.390;-3.266;2023-06-22T01:16:48;101335.34;;;20.38;62.13
23281;BME280;11809;56.390;-3.266;2023-06-22T01:19:50;101337.25;;;20.36;62.23
23281;BME280;11809;56.390;-3.266;2023-06-22T01:22:30;101349.84;;;20.34;62.50
23281;BME280;11809;56.390;-3.266;2023-06-22T01:25:12;101348.16;;;20.33;62.30
23281;BME280;11809;56.390;-3.266;2023-06-22T01:28:07;101349.84;;;20.34;61.95
23281;BME280;11809;56.390;-3.266;2023-06-22T01:30:42;101349.63;;;20.37;62.21
23281;BME280;11809;56.390;-3.266;2023-06-22T01:33:13;101352.53;;;20.34;62.20
23281;BME280;11809;56.390;-3.266;2023-06-22T01:35:41;101352.63;;;20.32;62.42
23281;BME280;11809;56.390;-3.266;2023-06-22T01:38:09;101353.59;;;20.31;62.29
23281;BME280;11809;56.390;-3.266;2023-06-22T01:40:36;101351.34;;;20.25;62.53
23281;BME280;11809;56.390;-3.266;2023-06-22T01:43:04;101356.38;;;20.30;62.44
23281;BME280;11809;56.390;-3.266;2023-06-22T01:45:32;101368.00;;;20.29;62.44
23281;BME280;11809;56.390;-3.266;2023-06-22T01:48:00;101365.44;;;20.27;62.22
23281;BME280;11809;56.390;-3.266;2023-06-22T01:50:27;101370.88;;;20.26;62.54
23281;BME280;11809;56.390;-3.266;2023-06-22T01:52:55;101367.34;;;20.25;62.27
23281;BME280;11809;56.390;-3.266;2023-06-22T01:55:22;101366.53;;;20.25;62.03
23281;BME280;11809;56.390;-3.266;2023-06-22T01:57:49;101373.66;;;20.24;62.02
23281;BME280;11809;56.390;-3.266;2023-06-22T02:00:21;101372.03;;;20.22;62.28
23281;BME280;11809;56.390;-3.266;2023-06-22T02:02:54;101378.31;;;20.21;62.35
23281;BME280;11809;56.390;-3.266;2023-06-22T02:05:24;101379.28;;;20.20;62.29
23281;BME280;11809;56.390;-3.266;2023-06-22T02:08:06;101375.00;;;20.17;62.41
23281;BME280;11809;56.390;-3.266;2023-06-22T02:10:35;101390.25;;;20.15;62.24
23281;BME280;11809;56.390;-3.266;2023-06-22T02:13:06;101388.44;;;20.16;62.19
23281;BME280;11809;56.390;-3.266;2023-06-22T02:15:33;101388.44;;;20.16;62.40
23281;BME280;11809;56.390;-3.266;2023-06-22T02:18:01;101395.59;;;20.15;62.40
23281;BME280;11809;56.390;-3.266;2023-06-22T02:20:28;101399.13;;;20.16;62.38
23281;BME280;11809;56.390;-3.266;2023-06-22T02:22:56;101403.72;;;20.14;62.13
23281;BME280;11809;56.390;-3.266;2023-06-22T02:25:23;101401.06;;;20.14;62.48
23281;BME280;11809;56.390;-3.266;2023-06-22T02:27:50;101399.53;;;20.10;61.98
23281;BME280;11809;56.390;-3.266;2023-06-22T02:30:17;101408.31;;;20.12;62.25
23281;BME280;11809;56.390;-3.266;2023-06-22T02:32:44;101400.41;;;20.10;62.23
23281;BME280;11809;56.390;-3.266;2023-06-22T02:35:12;101408.53;;;20.09;62.24
23281;BME280;11809;56.390;-3.266;2023-06-22T02:37:39;101401.47;;;20.08;62.39
23281;BME280;11809;56.390;-3.266;2023-06-22T02:40:08;101402.84;;;20.01;62.51
23281;BME280;11809;56.390;-3.266;2023-06-22T02:42:37;101407.88;;;20.05;62.37
23281;BME280;11809;56.390;-3.266;2023-06-22T02:45:04;101405.19;;;20.05;62.33
23281;BME280;11809;56.390;-3.266;2023-06-22T02:47:31;101413.31;;;20.04;62.17
23281;BME280;11809;56.390;-3.266;2023-06-22T02:49:59;101415.97;;;20.04;62.13
23281;BME280;11809;56.390;-3.266;2023-06-22T02:52:26;101417.88;;;20.02;61.92
23281;BME280;11809;56.390;-3.266;2023-06-22T02:54:53;101418.75;;;20.02;62.18
23281;BME280;11809;56.390;-3.266;2023-06-22T02:57:20;101406.78;;;19.95;62.28
23281;BME280;11809;56.390;-3.266;2023-06-22T02:59:47;101415.44;;;19.99;62.01
23281;BME280;11809;56.390;-3.266;2023-06-22T03:02:14;101421.72;;;19.98;62.09
23281;BME280;11809;56.390;-3.266;2023-06-22T03:04:41;101416.38;;;19.98;61.90
23281;BME280;11809;56.390;-3.266;2023-06-22T03:07:09;101413.19;;;19.92;62.14
23281;BME280;11809;56.390;-3.266;2023-06-22T03:09:36;101420.88;;;19.97;62.11
23281;BME280;11809;56.390;-3.266;2023-06-22T03:12:03;101427.06;;;19.98;62.12
23281;BME280;11809;56.390;-3.266;2023-06-22T03:14:30;101437.94;;;19.94;62.17
23281;BME280;11809;56.390;-3.266;2023-06-22T03:16:57;101435.25;;;19.94;62.24
23281;BME280;11809;56.390;-3.266;2023-06-22T03:19:29;101425.53;;;19.93;61.92
23281;BME280;11809;56.390;-3.266;2023-06-22T03:21:59;101430.13;;;19.91;62.13
23281;BME280;11809;56.390;-3.266;2023-06-22T03:24:26;101438.25;;;19.90;61.90
23281;BME280;11809;56.390;-3.266;2023-06-22T03:26:56;101430.31;;;19.88;62.37
23281;BME280;11809;56.390;-3.266;2023-06-22T03:29:23;101448.13;;;19.88;62.15
23281;BME280;11809;56.390;-3.266;2023-06-22T03:31:55;101441.13;;;19.87;62.24
23281;BME280;11809;56.390;-3.266;2023-06-22T03:34:22;101433.19;;;19.85;62.55
23281;BME280;11809;56.390;-3.266;2023-06-22T03:36:49;101439.50;;;19.84;62.33
23281;BME280;11809;56.390;-3.266;2023-06-22T03:39:16;101447.50;;;19.84;62.22
23281;BME280;11809;56.390;-3.266;2023-06-22T03:41:43;101442.25;;;19.83;62.65
23281;BME280;11809;56.390;-3.266;2023-06-22T03:44:10;101435.13;;;19.83;62.55
23281;BME280;11809;56.390;-3.266;2023-06-22T03:46:39;101443.03;;;19.85;62.69
23281;BME280;11809;56.390;-3.266;2023-06-22T03:49:06;101445.78;;;19.83;62.42
23281;BME280;11809;56.390;-3.266;2023-06-22T03:51:33;101450.38;;;19.81;62.44
23281;BME280;11809;56.390;-3.266;2023-06-22T03:54:01;101451.25;;;19.82;62.51
23281;BME280;11809;56.390;-3.266;2023-06-22T03:56:28;101453.03;;;19.81;62.49
23281;BME280;11809;56.390;-3.266;2023-06-22T03:58:55;101454.97;;;19.79;62.41
23281;BME280;11809;56.390;-3.266;2023-06-22T04:01:22;101455.81;;;19.80;62.16
23281;BME280;11809;56.390;-3.266;2023-06-22T04:03:49;101459.44;;;19.79;62.36
23281;BME280;11809;56.390;-3.266;2023-06-22T04:06:16;101459.50;;;19.77;62.52
23281;BME280;11809;56.390;-3.266;2023-06-22T04:08:45;101458.78;;;19.75;62.60
23281;BME280;11809;56.390;-3.266;2023-06-22T04:11:14;101458.78;;;19.75;62.42
23281;BME280;11809;56.390;-3.266;2023-06-22T04:13:42;101454.41;;;19.74;62.50
23281;BME280;11809;56.390;-3.266;2023-06-22T04:16:09;101444.13;;;19.68;62.78
23281;BME280;11809;56.390;-3.266;2023-06-22T04:18:36;101451.75;;;19.74;62.20
23281;BME280;11809;56.390;-3.266;2023-06-22T04:21:04;101458.03;;;19.73;62.22
23281;BME280;11809;56.390;-3.266;2023-06-22T04:23:31;101450.03;;;19.73;62.45
23281;BME280;11809;56.390;-3.266;2023-06-22T04:25:58;101455.53;;;19.70;62.51
23281;BME280;11809;56.390;-3.266;2023-06-22T04:28:26;101457.28;;;19.71;62.44
23281;BME280;11809;56.390;-3.266;2023-06-22T04:30:53;101457.47;;;19.68;62.23
23281;BME280;11809;56.390;-3.266;2023-06-22T04:33:29;101467.06;;;19.71;62.02
23281;BME280;11809;56.390;-3.266;2023-06-22T04:35:56;101470.69;;;19.70;62.19
23281;BME280;11809;56.390;-3.266;2023-06-22T04:38:30;101475.16;;;19.69;62.22
23281;BME280;11809;56.390;-3.266;2023-06-22T04:41:00;101469.94;;;19.68;62.14
23281;BME280;11809;56.390;-3.266;2023-06-22T04:43:30;101466.84;;;19.61;61.88
23281;BME280;11809;56.390;-3.266;2023-06-22T04:45:57;101467.38;;;19.66;61.69
23281;BME280;11809;56.390;-3.266;2023-06-22T04:48:30;101468.22;;;19.67;62.00
23281;BME280;11809;56.390;-3.266;2023-06-22T04:51:01;101476.31;;;19.65;62.19
23281;BME280;11809;56.390;-3.266;2023-06-22T04:53:31;101485.19;;;19.66;62.18
23281;BME280;11809;56.390;-3.266;2023-06-22T04:55:58;101478.06;;;19.66;61.87
23281;BME280;11809;56.390;-3.266;2023-06-22T04:58:25;101479.09;;;19.64;62.21
23281;BME280;11809;56.390;-3.266;2023-06-22T05:00:59;101479.84;;;19.66;62.07
23281;BME280;11809;56.390;-3.266;2023-06-22T05:03:26;101482.59;;;19.64;62.08
23281;BME280;11809;56.390;-3.266;2023-06-22T05:05:56;101477.28;;;19.64;62.35
23281;BME280;11809;56.390;-3.266;2023-06-22T05:08:23;101486.13;;;19.65;62.10
23281;BME280;11809;56.390;-3.266;2023-06-22T05:10:53;101491.59;;;19.63;62.18
23281;BME280;11809;56.390;-3.266;2023-06-22T05:13:31;101495.19;;;19.62;62.24
23281;BME280;11809;56.390;-3.266;2023-06-22T05:15:58;101493.38;;;19.63;62.18
23281;BME280;11809;56.390;-3.266;2023-06-22T05:18:29;101493.28;;;19.64;61.83
23281;BME280;11809;56.390;-3.266;2023-06-22T05:20:58;101493.28;;;19.64;62.00
23281;BME280;11809;56.390;-3.266;2023-06-22T05:23:26;101500.34;;;19.65;61.96
23281;BME280;11809;56.390;-3.266;2023-06-22T05:25:53;101508.34;;;19.65;62.11
23281;BME280;11809;56.390;-3.266;2023-06-22T05:28:21;101504.81;;;19.65;62.16
23281;BME280;11809;56.390;-3.266;2023-06-22T05:30:50;101508.53;;;19.62;62.34
23281;BME280;11809;56.390;-3.266;2023-06-22T05:33:17;101499.09;;;19.57;62.02
23281;BME280;11809;56.390;-3.266;2023-06-22T05:35:44;101507.59;;;19.63;62.28
23281;BME280;11809;56.390;-3.266;2023-06-22T05:38:11;101519.56;;;19.70;61.88
23281;BME280;11809;56.390;-3.266;2023-06-22T05:40:38;101521.09;;;19.74;61.65
23281;BME280;11809;56.390;-3.266;2023-06-22T05:43:05;101518.97;;;19.79;61.83
23281;BME280;11809;56.390;-3.266;2023-06-22T05:45:32;101508.19;;;19.81;61.88
23281;BME280;11809;56.390;-3.266;2023-06-22T05:47:59;101521.03;;;19.88;61.34
23281;BME280;11809;56.390;-3.266;2023-06-22T05:50:26;101516.47;;;19.90;61.84
23281;BME280;11809;56.390;-3.266;2023-06-22T05:52:54;101516.25;;;19.93;61.91
23281;BME280;11809;56.390;-3.266;2023-06-22T05:55:21;101519.91;;;19.92;62.13
23281;BME280;11809;56.390;-3.266;2023-06-22T05:57:48;101519.16;;;19.90;62.14
23281;BME280;11809;56.390;-3.266;2023-06-22T06:00:16;101527.97;;;19.91;61.91
23281;BME280;11809;56.390;-3.266;2023-06-22T06:02:43;101525.44;;;19.89;61.76
23281;BME280;11809;56.390;-3.266;2023-06-22T06:05:11;101527.03;;;19.92;61.52
23281;BME280;11809;56.390;-3.266;2023-06-22T06:07:41;101526.16;;;19.91;61.71
23281;BME280;11809;56.390;-3.266;2023-06-22T06:10:09;101534.19;;;19.91;61.31
23281;BME280;11809;56.390;-3.266;2023-06-22T06:12:36;101528.44;;;19.98;61.84
23281;BME280;11809;56.390;-3.266;2023-06-22T06:15:04;101532.25;;;19.93;60.83
23281;BME280;11809;56.390;-3.266;2023-06-22T06:17:35;101532.41;;;19.78;59.91
23281;BME280;11809;56.390;-3.266;2023-06-22T06:20:03;101531.91;;;19.85;61.14
23281;BME280;11809;56.390;-3.266;2023-06-22T06:22:31;101526.16;;;19.91;61.77
23281;BME280;11809;56.390;-3.266;2023-06-22T06:24:59;101530.38;;;19.95;61.48
23281;BME280;11809;56.390;-3.266;2023-06-22T06:27:26;101532.06;;;19.96;60.79
23281;BME280;11809;56.390;-3.266;2023-06-22T06:29:56;101525.78;;;19.98;60.52
23281;BME280;11809;56.390;-3.266;2023-06-22T06:32:23;101527.50;;;19.99;60.39
23281;BME280;11809;56.390;-3.266;2023-06-22T06:34:51;101533.78;;;19.98;60.11
23281;BME280;11809;56.390;-3.266;2023-06-22T06:37:18;101531.13;;;19.98;60.06
23281;BME280;11809;56.390;-3.266;2023-06-22T06:39:45;101535.59;;;19.97;59.77
23281;BME280;11809;56.390;-3.266;2023-06-22T06:42:12;101527.97;;;19.91;59.68
23281;BME280;11809;56.390;-3.266;2023-06-22T06:44:39;101539.13;;;19.98;59.61
23281;BME280;11809;56.390;-3.266;2023-06-22T06:47:07;101528.44;;;19.98;59.43
23281;BME280;11809;56.390;-3.266;2023-06-22T06:49:34;101530.94;;;20.01;59.84
23281;BME280;11809;56.390;-3.266;2023-06-22T06:52:02;101530.94;;;20.01;59.99
23281;BME280;11809;56.390;-3.266;2023-06-22T06:54:29;101529.88;;;20.03;59.96
23281;BME280;11809;56.390;-3.266;2023-06-22T06:56:57;101542.34;;;20.03;59.66
23281;BME280;11809;56.390;-3.266;2023-06-22T06:59:24;101535.09;;;20.05;59.46
23281;BME280;11809;56.390;-3.266;2023-06-22T07:01:51;101535.63;;;20.10;59.88
23281;BME280;11809;56.390;-3.266;2023-06-22T07:04:19;101536.41;;;20.12;59.86
23281;BME280;11809;56.390;-3.266;2023-06-22T07:06:46;101534.50;;;20.14;60.23
23281;BME280;11809;56.390;-3.266;2023-06-22T07:09:13;101533.44;;;20.16;60.47
23281;BME280;11809;56.390;-3.266;2023-06-22T07:11:41;101534.94;;;20.20;61.25
23281;BME280;11809;56.390;-3.266;2023-06-22T07:14:08;101542.69;;;20.25;61.23
23281;BME280;11809;56.390;-3.266;2023-06-22T07:16:35;101543.53;;;20.25;61.43
23281;BME280;11809;56.390;-3.266;2023-06-22T07:19:02;101547.84;;;20.28;61.38
23281;BME280;11809;56.390;-3.266;2023-06-22T07:21:30;101544.09;;;20.30;61.43
23281;BME280;11809;56.390;-3.266;2023-06-22T07:23:57;101543.78;;;20.35;61.25
23281;BME280;11809;56.390;-3.266;2023-06-22T07:26:24;101540.91;;;20.38;61.54
23281;BME280;11809;56.390;-3.266;2023-06-22T07:28:51;101548.50;;;20.44;61.50
23281;BME280;11809;56.390;-3.266;2023-06-22T07:31:18;101541.34;;;20.44;61.66
23281;BME280;11809;56.390;-3.266;2023-06-22T07:33:47;101542.94;;;20.47;61.89
23281;BME280;11809;56.390;-3.266;2023-06-22T07:36:16;101540.09;;;20.50;61.39
23281;BME280;11809;56.390;-3.266;2023-06-22T07:38:44;101543.41;;;20.53;61.46
23281;BME280;11809;56.390;-3.266;2023-06-22T07:41:11;101548.63;;;20.55;61.67
23281;BME280;11809;56.390;-3.266;2023-06-22T07:43:38;101543.22;;;20.57;61.75
23281;BME280;11809;56.390;-3.266;2023-06-22T07:46:05;101541.09;;;20.62;61.61
23281;BME280;11809;56.390;-3.266;2023-06-22T07:48:32;101543.63;;;20.63;61.14
23281;BME280;11809;56.390;-3.266;2023-06-22T07:51:03;101556.03;;;20.64;61.29
23281;BME280;11809;56.390;-3.266;2023-06-22T07:53:30;101557.78;;;20.65;61.30
23281;BME280;11809;56.390;-3.266;2023-06-22T07:55:57;101546.97;;;20.67;61.38
23281;BME280;11809;56.390;-3.266;2023-06-22T07:58:24;101549.75;;;20.65;61.90
23281;BME280;11809;56.390;-3.266;2023-06-22T08:00:51;101559.47;;;20.66;61.60
23281;BME280;11809;56.390;-3.266;2023-06-22T08:03:19;101561.19;;;20.67;61.40
23281;BME280;11809;56.390;-3.266;2023-06-22T08:05:46;101553.72;;;20.72;61.69
23281;BME280;11809;56.390;-3.266;2023-06-22T08:08:16;101563.00;;;20.79;61.54
23281;BME280;11809;56.390;-3.266;2023-06-22T08:10:43;101563.53;;;20.84;62.11
23281;BME280;11809;56.390;-3.266;2023-06-22T08:13:10;101560.88;;;20.84;61.78
23281;BME280;11809;56.390;-3.266;2023-06-22T08:15:37;101563.66;;;20.83;61.67
23281;BME280;11809;56.390;-3.266;2023-06-22T08:18:05;101562.69;;;20.84;61.77
23281;BME280;11809;56.390;-3.266;2023-06-22T08:20:32;101562.59;;;20.85;61.90
23281;BME280;11809;56.390;-3.266;2023-06-22T08:23:00;101564.63;;;20.82;60.61
23281;BME280;11809;56.390;-3.266;2023-06-22T08:25:34;101561.41;;;20.77;58.73
23281;BME280;11809;56.390;-3.266;2023-06-22T08:28:02;101561.94;;;20.82;59.70
23281;BME280;11809;56.390;-3.266;2023-06-22T08:30:29;101555.53;;;20.84;60.13
23281;BME280;11809;56.390;-3.266;2023-06-22T08:32:57;101549.66;;;20.92;61.06
23281;BME280;11809;56.390;-3.266;2023-06-22T08:35:24;101553.84;;;20.96;60.84
23281;BME280;11809;56.390;-3.266;2023-06-22T08:37:52;101551.91;;;20.98;60.77
23281;BME280;11809;56.390;-3.266;2023-06-22T08:40:23;101552.78;;;20.98;61.06
23281;BME280;11809;56.390;-3.266;2023-06-22T08:42:51;101549.91;;;21.01;61.23
23281;BME280;11809;56.390;-3.266;2023-06-22T08:45:18;101561.25;;;21.05;61.35
23281;BME280;11809;56.390;-3.266;2023-06-22T08:47:46;101561.69;;;21.11;60.79
23281;BME280;11809;56.390;-3.266;2023-06-22T08:50:13;101549.19;;;21.12;61.27
23281;BME280;11809;56.390;-3.266;2023-06-22T08:52:40;101559.00;;;21.11;61.20
23281;BME280;11809;56.390;-3.266;2023-06-22T08:55:10;101547.47;;;21.11;61.22
23281;BME280;11809;56.390;-3.266;2023-06-22T08:57:37;101547.38;;;21.12;60.91
23281;BME280;11809;56.390;-3.266;2023-06-22T09:00:09;101544.56;;;21.14;61.21
23281;BME280;11809;56.390;-3.266;2023-06-22T09:02:44;101556.78;;;21.18;61.56
23281;BME280;11809;56.390;-3.266;2023-06-22T09:05:12;101551.09;;;21.23;60.95
23281;BME280;11809;56.390;-3.266;2023-06-22T09:07:40;101547.34;;;21.25;60.97
23281;BME280;11809;56.390;-3.266;2023-06-22T09:10:07;101547.88;;;21.30;60.95
23281;BME280;11809;56.390;-3.266;2023-06-22T09:12:35;101550.44;;;21.32;61.56
23281;BME280;11809;56.390;-3.266;2023-06-22T09:15:05;101554.84;;;21.33;60.98
23281;BME280;11809;56.390;-3.266;2023-06-22T09:17:40;101554.75;;;21.34;61.10
23281;BME280;11809;56.390;-3.266;2023-06-22T09:20:08;101559.75;;;21.39;60.80
23281;BME280;11809;56.390;-3.266;2023-06-22T09:22:37;101559.44;;;21.43;60.66
23281;BME280;11809;56.390;-3.266;2023-06-22T09:25:05;101563.69;;;21.46;60.84
23281;BME280;11809;56.390;-3.266;2023-06-22T09:27:33;101567.03;;;21.49;60.36
23281;BME280;11809;56.390;-3.266;2023-06-22T09:30:00;101572.16;;;21.52;60.43
23281;BME280;11809;56.390;-3.266;2023-06-22T09:32:28;101567.69;;;21.53;60.50
23281;BME280;11809;56.390;-3.266;2023-06-22T09:34:55;101576.44;;;21.55;60.52
23281;BME280;11809;56.390;-3.266;2023-06-22T09:37:22;101576.22;;;21.58;60.32
23281;BME280;11809;56.390;-3.266;2023-06-22T09:39:49;101576.53;;;21.53;57.55
23281;BME280;11809;56.390;-3.266;2023-06-22T09:42:16;101569.78;;;21.48;55.40
23281;BME280;11809;56.390;-3.266;2023-06-22T09:44:43;101569.25;;;21.43;53.49
23281;BME280;11809;56.390;-3.266;2023-06-22T09:47:11;101570.22;;;21.54;56.17
23281;BME280;11809;56.390;-3.266;2023-06-22T09:49:38;101571.59;;;21.60;58.29
23281;BME280;11809;56.390;-3.266;2023-06-22T09:52:14;101573.84;;;21.66;58.31
23281;BME280;11809;56.390;-3.266;2023-06-22T09:54:41;101574.69;;;21.66;57.29
23281;BME280;11809;56.390;-3.266;2023-06-22T09:57:08;101566.56;;;21.68;57.23
23281;BME280;11809;56.390;-3.266;2023-06-22T09:59:35;101564.97;;;21.65;57.59
23281;BME280;11809;56.390;-3.266;2023-06-22T10:02:03;101569.34;;;21.66;57.58
23281;BME280;11809;56.390;-3.266;2023-06-22T10:04:30;101578.44;;;21.64;57.66
23281;BME280;11809;56.390;-3.266;2023-06-22T10:06:59;101578.13;;;21.68;57.60
23281;BME280;11809;56.390;-3.266;2023-06-22T10:09:26;101576.06;;;21.72;57.43
23281;BME280;11809;56.390;-3.266;2023-06-22T10:11:53;101584.78;;;21.63;57.63
23281;BME280;11809;56.390;-3.266;2023-06-22T10:14:20;101579.00;;;21.56;57.78
23281;BME280;11809;56.390;-3.266;2023-06-22T10:16:48;101587.66;;;21.60;58.56
23281;BME280;11809;56.390;-3.266;2023-06-22T10:19:15;101583.25;;;21.59;58.53
23281;BME280;11809;56.390;-3.266;2023-06-22T10:21:43;101580.72;;;21.57;57.90
23281;BME280;11809;56.390;-3.266;2023-06-22T10:24:10;101581.56;;;21.58;57.46
23281;BME280;11809;56.390;-3.266;2023-06-22T10:26:37;101578.91;;;21.58;57.22
23281;BME280;11809;56.390;-3.266;2023-06-22T10:29:05;101587.53;;;21.61;57.25
23281;BME280;11809;56.390;-3.266;2023-06-22T10:31:43;101589.25;;;21.62;57.37
23281;BME280;11809;56.390;-3.266;2023-06-22T10:34:10;101567.69;;;21.53;57.43
23281;BME280;11809;56.390;-3.266;2023-06-22T10:36:38;101585.41;;;21.54;57.40
23281;BME280;11809;56.390;-3.266;2023-06-22T10:39:06;101582.75;;;21.54;57.12
23281;BME280;11809;56.390;-3.266;2023-06-22T10:41:33;101591.63;;;21.54;56.29
23281;BME280;11809;56.390;-3.266;2023-06-22T10:44:00;101594.44;;;21.53;57.16
23281;BME280;11809;56.390;-3.266;2023-06-22T10:46:27;101589.69;;;21.56;57.37
23281;BME280;11809;56.390;-3.266;2023-06-22T10:48:55;101578.69;;;21.61;57.44
23281;BME280;11809;56.390;-3.266;2023-06-22T10:51:24;101577.47;;;21.65;57.04
23281;BME280;11809;56.390;-3.266;2023-06-22T10:53:52;101571.69;;;21.71;57.49
23281;BME280;11809;56.390;-3.266;2023-06-22T10:56:19;101557.81;;;21.66;57.03
23281;BME280;11809;56.390;-3.266;2023-06-22T10:58:47;101570.16;;;21.80;56.76
23281;BME280;11809;56.390;-3.266;2023-06-22T11:01:14;101573.19;;;21.75;56.51
23281;BME280;11809;56.390;-3.266;2023-06-22T11:04:01;101581.03;;;21.65;56.25
23281;BME280;11809;56.390;-3.266;2023-06-22T11:06:28;101577.78;;;21.73;54.85
23281;BME280;11809;56.390;-3.266;2023-06-22T11:08:55;101581.31;;;21.73;55.64
23281;BME280;11809;56.390;-3.266;2023-06-22T11:11:37;101577.16;;;21.69;56.73
23281;BME280;11809;56.390;-3.266;2023-06-22T11:14:05;101578.00;;;21.70;55.87
23281;BME280;11809;56.390;-3.266;2023-06-22T11:16:32;101573.19;;;21.75;56.12
23281;BME280;11809;56.390;-3.266;2023-06-22T11:19:02;101574.69;;;21.79;56.04
23281;BME280;11809;56.390;-3.266;2023-06-22T11:21:30;101572.31;;;21.74;56.31
23281;BME280;11809;56.390;-3.266;2023-06-22T11:24:01;101569.94;;;21.83;56.25
23281;BME280;11809;56.390;-3.266;2023-06-22T11:26:28;101564.72;;;21.81;56.14
23281;BME280;11809;56.390;-3.266;2023-06-22T11:28:56;101566.53;;;21.81;56.47
23281;BME280;11809;56.390;-3.266;2023-06-22T11:31:23;101562.03;;;21.81;56.38
23281;BME280;11809;56.390;-3.266;2023-06-22T11:33:52;101567.41;;;21.81;55.90
23281;BME280;11809;56.390;-3.266;2023-06-22T11:36:19;101571.53;;;21.85;55.23
23281;BME280;11809;56.390;-3.266;2023-06-22T11:38:47;101556.03;;;21.77;55.98
23281;BME280;11809;56.390;-3.266;2023-06-22T11:41:14;101572.63;;;21.83;55.15
23281;BME280;11809;56.390;-3.266;2023-06-22T11:43:41;101575.19;;;21.84;55.33
23281;BME280;11809;56.390;-3.266;2023-06-22T11:46:09;101573.38;;;21.85;55.17
23281;BME280;11809;56.390;-3.266;2023-06-22T11:48:36;101569.84;;;21.84;54.74
23281;BME280;11809;56.390;-3.266;2023-06-22T11:51:04;101570.63;;;21.86;53.55
23281;BME280;11809;56.390;-3.266;2023-06-22T11:53:33;101570.06;;;21.81;54.11
23281;BME280;11809;56.390;-3.266;2023-06-22T11:56:01;101571.88;;;21.81;54.15
23281;BME280;11809;56.390;-3.266;2023-06-22T11:58:28;101570.16;;;21.80;55.22
23281;BME280;11809;56.390;-3.266;2023-06-22T12:00:55;101572.22;;;21.76;55.76
23281;BME280;11809;56.390;-3.266;2023-06-22T12:03:23;101567.59;;;21.78;55.75
23281;BME280;11809;56.390;-3.266;2023-06-22T12:05:50;101572.00;;;21.79;55.54
23281;BME280;11809;56.390;-3.266;2023-06-22T12:08:19;101568.69;;;21.75;55.65
23281;BME280;11809;56.390;-3.266;2023-06-22T12:10:46;101578.84;;;21.83;55.83
23281;BME280;11809;56.390;-3.266;2023-06-22T12:13:13;101563.34;;;21.75;56.06
23281;BME280;11809;56.390;-3.266;2023-06-22T12:15:40;101577.22;;;21.81;56.11
23281;BME280;11809;56.390;-3.266;2023-06-22T12:18:07;101578.84;;;21.83;55.64
23281;BME280;11809;56.390;-3.266;2023-06-22T12:20:35;101572.41;;;21.86;56.09
23281;BME280;11809;56.390;-3.266;2023-06-22T12:23:03;101573.28;;;21.86;55.80
23281;BME280;11809;56.390;-3.266;2023-06-22T12:25:30;101574.22;;;21.85;55.80
23281;BME280;11809;56.390;-3.266;2023-06-22T12:27:57;101581.31;;;21.86;55.01
23281;BME280;11809;56.390;-3.266;2023-06-22T12:30:24;101576.16;;;21.83;55.10
23281;BME280;11809;56.390;-3.266;2023-06-22T12:32:51;101572.53;;;21.84;54.74
23281;BME280;11809;56.390;-3.266;2023-06-22T12:35:22;101574.16;;;21.87;54.26
23281;BME280;11809;56.390;-3.266;2023-06-22T12:37:49;101582.25;;;21.85;54.98
23281;BME280;11809;56.390;-3.266;2023-06-22T12:40:16;101587.41;;;21.88;54.49
23281;BME280;11809;56.390;-3.266;2023-06-22T12:42:45;101577.88;;;21.84;55.03
23281;BME280;11809;56.390;-3.266;2023-06-22T12:45:12;101583.44;;;21.81;55.61
23281;BME280;11809;56.390;-3.266;2023-06-22T12:47:39;101577.22;;;21.81;55.01